Stations météo

réclame
Mon MeteoGroup
Ripoll, Espagne (8118): Température de l'air & dewpoint: 13.10.2018 11:00:00 - 19.10.2018 11:00:00 (CEST)Ripoll, Espagne (8118): Vitesse du vent & gusts: 13.10.2018 11:00:00 - 19.10.2018 11:00:00 (CEST)Ripoll, Espagne (8118): Direction du vent: 13.10.2018 11:00:00 - 19.10.2018 11:00:00 (CEST)Ripoll, Espagne (8118): Quantités de précipitations: 13.10.2018 11:00:00 - 19.10.2018 11:00:00 (CEST)
Date & Time tt [°C] td [°C] ff [km/h] ff [knt] fx [km/h] fx [knt] dd rr [mm]
19.10.2018 11:00:00 - - - - - - - -
19.10.2018 10:00:00 15,3 12,7 4 2 23 12 NNW 0,0
19.10.2018 09:00:00 15,3 12,4 4 2 18 10 NNW 0,0
19.10.2018 08:00:00 15,8 12,0 5 3 19 10 NE -
19.10.2018 07:00:00 16,2 12,0 4 2 17 9 NNW 0,0
19.10.2018 06:00:00 16,1 11,9 3 2 24 13 SW 0,0
19.10.2018 05:00:00 16,0 12,0 8 4 24 13 ENE 0,0
19.10.2018 04:00:00 16,1 12,1 5 3 22 12 NE 0,0
19.10.2018 03:00:00 15,9 12,4 7 4 32 17 E 0,0
19.10.2018 02:00:00 13,4 13,3 0 0 6 3 N -
19.10.2018 01:00:00 13,4 13,1 1 0 5 3 N 0,0
19.10.2018 00:00:00 13,8 13,1 1 1 11 6 NNE 0,0
18.10.2018 23:00:00 14,4 13,2 3 1 10 5 NNW 0,0
18.10.2018 22:00:00 15,0 13,2 0 0 13 7 E 0,0
18.10.2018 21:00:00 15,4 13,3 1 1 15 8 S 0,0
18.10.2018 20:00:00 15,9 13,2 6 3 22 12 E -
18.10.2018 19:00:00 15,8 13,5 5 3 21 11 ENE 0,0
18.10.2018 18:00:00 16,5 13,9 1 1 21 12 NNE 0,0
18.10.2018 17:00:00 16,9 14,1 4 2 19 10 S 0,0
18.10.2018 16:00:00 17,6 14,9 2 1 31 17 N 0,0
18.10.2018 15:00:00 17,2 15,0 5 3 26 14 NE 0,0
18.10.2018 14:00:00 16,1 15,0 3 1 24 13 NNE -
18.10.2018 13:00:00 15,7 15,3 5 3 23 12 ENE 0,0
18.10.2018 12:00:00 14,0 13,9 5 3 19 10 NW 3,2
18.10.2018 11:00:00 13,8 13,7 1 1 13 7 NNW 3,2
18.10.2018 10:00:00 13,3 13,2 0 0 8 5 SW 0,0
18.10.2018 09:00:00 12,8 12,6 0 0 16 9 NE 0,2
18.10.2018 08:00:00 12,6 12,4 1 0 13 7 NE -
18.10.2018 07:00:00 12,1 12,0 1 1 14 7 N 0,0
18.10.2018 06:00:00 11,9 11,8 1 1 8 4 NE 0,0
18.10.2018 05:00:00 11,6 11,4 0 0 9 5 ENE 0,0
18.10.2018 04:00:00 11,3 11,1 3 2 9 5 NE 0,0
18.10.2018 03:00:00 11,7 11,6 1 1 10 6 NE 0,0
18.10.2018 02:00:00 12,2 12,0 2 1 8 5 NE -
18.10.2018 01:00:00 12,3 12,1 0 0 7 4 NE 0,0
18.10.2018 00:00:00 13,2 13,1 1 1 11 6 WNW 0,0
17.10.2018 23:00:00 14,0 13,7 0 0 5 3 SSE 0,0
17.10.2018 22:00:00 14,4 13,8 0 0 7 4 NNE 0,0
17.10.2018 21:00:00 14,8 13,7 3 2 13 7 NW 0,0
17.10.2018 20:00:00 15,1 13,5 5 3 14 8 ENE -
17.10.2018 19:00:00 15,8 13,7 2 1 14 8 NNW 0,0
17.10.2018 18:00:00 17,2 13,9 0 0 18 10 SE 0,0
17.10.2018 17:00:00 17,9 14,2 1 0 11 6 NNE 0,0
17.10.2018 16:00:00 18,3 13,8 4 2 12 6 SE 0,0
17.10.2018 15:00:00 19,2 14,4 3 2 16 8 S 0,0
17.10.2018 14:00:00 18,4 14,3 3 1 12 6 ENE -
17.10.2018 13:00:00 17,8 14,5 3 1 9 5 NE 0,0
17.10.2018 12:00:00 15,8 14,5 1 1 6 3 NNE 0,0
17.10.2018 11:00:00 14,1 13,8 1 0 5 3 ENE 0,0
17.10.2018 10:00:00 10,7 10,5 0 0 10 5 N 0,0
17.10.2018 09:00:00 10,0 9,6 0 0 3 2 NNE 0,0
17.10.2018 08:00:00 10,5 10,3 0 0 9 5 NE -
17.10.2018 07:00:00 11,4 11,2 0 0 11 6 NE 0,0
17.10.2018 06:00:00 11,4 11,2 0 0 7 4 NE 0,0
17.10.2018 05:00:00 11,4 11,2 0 0 9 5 NE 0,0
17.10.2018 04:00:00 11,6 11,4 1 0 6 4 N 0,0
17.10.2018 03:00:00 11,8 11,7 0 0 12 7 N 0,2
17.10.2018 02:00:00 11,7 11,6 0 0 11 6 NNE -
17.10.2018 01:00:00 11,6 11,4 1 1 10 6 N 0,0
17.10.2018 00:00:00 11,5 11,3 1 0 10 5 SSE 0,0
16.10.2018 23:00:00 12,1 12,0 1 1 5 3 NNE 0,0
16.10.2018 22:00:00 12,7 12,4 0 0 6 4 N 0,0
16.10.2018 21:00:00 13,5 12,8 0 0 5 3 N 0,0
16.10.2018 20:00:00 14,6 13,2 0 0 9 5 N -
16.10.2018 19:00:00 15,6 12,3 3 2 9 5 NNW 0,0
16.10.2018 18:00:00 16,4 12,1 3 2 18 10 N 0,1
16.10.2018 17:00:00 18,3 13,8 2 1 18 10 NNE 0,0
16.10.2018 16:00:00 16,0 13,7 5 3 19 10 NNW 0,2
16.10.2018 15:00:00 17,2 12,7 4 2 16 9 NNE 0,0
16.10.2018 14:00:00 18,4 13,1 6 3 14 7 SE -
16.10.2018 13:00:00 16,0 11,6 3 1 11 6 SE 0,0
16.10.2018 12:00:00 15,6 11,3 3 2 9 5 NNW 0,0
16.10.2018 11:00:00 13,9 11,2 1 0 11 6 NNE 0,0
16.10.2018 10:00:00 10,8 9,6 0 0 13 7 NNE 0,0
16.10.2018 09:00:00 10,2 9,2 1 1 10 6 NE 0,0
16.10.2018 08:00:00 10,0 8,9 1 0 13 7 N -
16.10.2018 07:00:00 10,2 9,3 2 1 16 8 NNW 0,0
16.10.2018 06:00:00 10,6 9,8 1 1 8 4 N 0,0
16.10.2018 05:00:00 10,8 10,0 0 0 9 5 NNE 0,0
16.10.2018 04:00:00 10,9 10,2 0 0 4 2 NNE 0,0
16.10.2018 03:00:00 10,9 10,2 0 0 4 2 N 0,0
16.10.2018 02:00:00 10,8 9,9 0 0 0 0 N -
16.10.2018 01:00:00 10,8 9,7 1 0 4 2 SE 0,0
16.10.2018 00:00:00 11,7 10,4 0 0 4 2 N 0,0
15.10.2018 23:00:00 12,3 10,9 0 0 6 3 N 0,0
15.10.2018 22:00:00 12,9 11,3 1 1 7 4 SSE 0,0
15.10.2018 21:00:00 13,3 11,6 0 0 6 4 N 0,0
15.10.2018 20:00:00 13,5 11,2 1 0 10 5 N -
15.10.2018 19:00:00 13,8 10,6 1 1 10 5 NW 0,0
15.10.2018 18:00:00 13,8 10,8 3 1 16 9 NNE 0,0
15.10.2018 17:00:00 14,4 10,8 4 2 16 8 NE 0,0
15.10.2018 16:00:00 14,4 11,2 2 1 21 11 NE 0,0
15.10.2018 15:00:00 15,1 11,3 3 2 20 11 NNE 0,1
15.10.2018 14:00:00 14,9 12,2 2 1 10 6 ENE -
15.10.2018 13:00:00 14,7 12,7 2 1 14 8 NE 0,4
15.10.2018 12:00:00 14,9 13,1 4 2 10 5 NNW 0,0
15.10.2018 11:00:00 14,2 13,8 1 1 6 4 NW 0,0
15.10.2018 10:00:00 13,3 12,8 0 0 5 3 ENE 5,7
15.10.2018 09:00:00 12,6 12,1 0 0 7 4 N 0,6
15.10.2018 08:00:00 12,4 11,9 2 1 10 5 NNW -
15.10.2018 07:00:00 12,9 12,4 0 0 7 4 N 0,1
15.10.2018 06:00:00 12,9 12,4 0 0 3 2 N 0,0
15.10.2018 05:00:00 - - - - - - - -
15.10.2018 04:00:00 14,0 13,9 0 0 6 3 WNW 7,0
15.10.2018 03:00:00 14,3 14,1 0 0 12 7 W 5,0
15.10.2018 02:00:00 14,6 14,4 0 0 5 3 N -
15.10.2018 01:00:00 14,5 14,3 0 0 0 0 N 5,6
15.10.2018 00:00:00 14,4 14,2 0 0 6 3 N 6,1
14.10.2018 23:00:00 14,4 14,2 1 1 7 4 NW 6,9
14.10.2018 22:00:00 14,7 14,5 0 0 9 5 N 3,4
14.10.2018 21:00:00 15,0 14,8 0 0 6 3 N 1,6
14.10.2018 20:00:00 15,2 15,1 0 0 14 7 NE -
14.10.2018 19:00:00 15,7 15,5 3 2 18 10 SSE 1,2
14.10.2018 18:00:00 16,5 16,3 2 1 28 15 SSW 5,9
14.10.2018 17:00:00 17,5 16,9 2 1 10 5 SSE 0,0
14.10.2018 16:00:00 18,0 17,4 1 0 9 5 NNW 0,0
14.10.2018 15:00:00 17,0 16,8 1 1 8 5 SSE 1,2
14.10.2018 14:00:00 16,5 16,3 3 2 9 5 S -
14.10.2018 13:00:00 16,6 16,3 0 0 2 1 NNW 1,4
14.10.2018 12:00:00 16,3 15,8 0 0 3 2 N 0,0
14.10.2018 11:00:00 15,7 15,3 0 0 0 0 N 0,0
14.10.2018 10:00:00 15,0 14,7 0 0 0 0 N 0,0
14.10.2018 09:00:00 14,7 14,4 0 0 2 1 N 0,0
14.10.2018 08:00:00 14,6 14,1 1 0 6 3 SSE -
14.10.2018 07:00:00 14,9 14,4 0 0 4 2 SSE 0,0
14.10.2018 06:00:00 15,5 14,9 0 0 4 2 NE 0,0
14.10.2018 05:00:00 15,8 15,2 0 0 2 1 N 0,0
14.10.2018 04:00:00 16,2 15,1 0 0 9 5 SW 0,0
14.10.2018 03:00:00 16,4 15,1 1 1 7 4 S 0,0
14.10.2018 02:00:00 16,6 15,3 1 1 5 3 S -
14.10.2018 01:00:00 16,9 15,6 4 2 12 7 S 0,0
14.10.2018 00:00:00 17,0 15,3 4 2 14 8 S 0,0
13.10.2018 23:00:00 17,4 16,2 8 5 17 9 S 0,0
13.10.2018 22:00:00 17,6 16,3 8 4 19 10 SSE 0,0
13.10.2018 21:00:00 17,9 16,4 7 4 19 11 S 0,0
13.10.2018 20:00:00 18,4 16,7 6 3 19 11 S -
13.10.2018 19:00:00 19,1 16,7 6 3 20 11 SSE 0,0
13.10.2018 18:00:00 20,2 16,6 10 6 18 10 SSE 0,0
13.10.2018 17:00:00 21,1 16,0 4 2 19 10 S 0,0
13.10.2018 16:00:00 21,0 16,0 7 4 23 13 S 0,0
13.10.2018 15:00:00 21,4 16,1 11 6 26 14 S 0,0
13.10.2018 14:00:00 - - - - - - - -
13.10.2018 13:00:00 19,3 16,0 7 4 18 10 S 0,0
13.10.2018 12:00:00 17,9 16,4 1 1 7 4 SSE 0,0
13.10.2018 11:00:00 15,9 14,2 0 0 7 4 ESE 0,0

tt = Température de l'air
td = dewpoint
ff = Vitesse du vent
fx = gusts
dd = Direction du vent
rr = Quantités de précipitations

stations d'obs. à proximité